aviador You're here:

EBFN Decoded Metar

KOKSIJDE in BELGIUM
Report Time2018-06-19 07:55:00
UTC Time2018-06-19 08:14:12
Flight Rules mvfr MVFR
Wind250° at 08 kt
W.Decomp.*RWY 29: 6.1 kt HW 5.1 kt LCW
W.Rank250° ranks 8
Current wind is below 250° avg. (11.7)
Visibility9999 m
Phenomena:N/A
Clouds:Few 010 Hf
Broken 022 Hf
Expected CloudBase > 800 ft AGL from Temp-Dew spread
Ceiling2,200 ft
Temp17°C (ISA +2)
Dew Point15°C (88% RH)
AAT15.7°C
QNH1024 hPa
Density Alt128 ft
Elevation30 ft
Report Wrong Elevation
Raw Report
METAR EBFN 190755Z 25008KT 9999 FEW010 BKN022 17/15 Q1024 WHT WHT=

Extra information for EBFN:More info

Metar Taf Metar & Taf Last 4 Metars F.Rules Stats Wind Profile Meteogram Temp Stats Airport Information Weather charts Add Link Nearby VenuesMetar ALERT Operation Metar Decoded Social comments